createdAt,value
2019-02-12T00:00:44.382Z,1.40
2019-02-12T00:03:10.677Z,1.90
2019-02-12T00:05:36.947Z,1.70
2019-02-12T00:08:03.226Z,1.53
2019-02-12T00:10:29.874Z,1.80
2019-02-12T00:12:56.149Z,1.43
2019-02-12T00:15:22.518Z,1.57
2019-02-12T00:17:48.773Z,1.70
2019-02-12T00:20:15.046Z,1.60
2019-02-12T00:22:41.598Z,1.30
2019-02-12T00:25:08.066Z,1.53
2019-02-12T00:27:34.748Z,1.67
2019-02-12T00:30:01.742Z,1.57
2019-02-12T00:32:28.418Z,1.73
2019-02-12T00:34:55.064Z,1.87
2019-02-12T00:37:21.354Z,1.90
2019-02-12T00:39:47.672Z,2.00
2019-02-12T00:42:14.238Z,2.33
2019-02-12T00:44:40.526Z,2.13
2019-02-12T00:47:06.822Z,2.00
2019-02-12T00:49:33.467Z,2.40
2019-02-12T00:51:59.722Z,1.90
2019-02-12T00:54:26.389Z,1.90
2019-02-12T00:56:53.065Z,2.37
2019-02-12T00:59:19.730Z,1.63
2019-02-12T01:01:46.030Z,1.83
2019-02-12T01:04:12.360Z,1.80
2019-02-12T01:06:38.997Z,2.10
2019-02-12T01:09:05.878Z,1.67
2019-02-12T01:11:32.482Z,2.17
2019-02-12T01:13:59.157Z,2.13
2019-02-12T01:16:25.794Z,2.30
2019-02-12T01:18:52.090Z,1.90
2019-02-12T01:21:26.103Z,2.23
2019-02-12T01:23:46.806Z,2.40
2019-02-12T01:26:13.142Z,1.70
2019-02-12T04:33:22.911Z,1.53
2019-02-12T04:35:49.566Z,2.10
2019-02-12T04:38:16.190Z,2.20
2019-02-12T04:40:42.874Z,1.90
2019-02-12T04:43:09.198Z,2.40
2019-02-12T04:45:37.510Z,2.10
2019-02-12T04:48:04.129Z,2.40
2019-02-12T04:50:30.383Z,2.03
2019-02-12T04:52:56.706Z,2.00
2019-02-12T04:55:22.974Z,2.10
2019-02-12T04:57:49.269Z,1.97
2019-02-12T05:00:16.501Z,2.00
2019-02-12T05:02:42.786Z,2.30
2019-02-12T05:05:09.618Z,1.80
2019-02-12T05:07:36.227Z,1.73
2019-02-12T05:10:04.566Z,2.00
2019-02-12T05:12:31.185Z,2.13
2019-02-12T05:14:57.470Z,1.97
2019-02-12T05:17:24.106Z,2.27
2019-02-12T05:19:50.775Z,2.20
2019-02-12T05:22:17.407Z,2.33
2019-02-12T05:24:44.013Z,2.60
2019-02-12T05:27:10.295Z,2.40
2019-02-12T05:29:36.550Z,2.10
2019-02-12T05:32:03.215Z,2.77
2019-02-12T05:34:30.767Z,2.47
2019-02-12T05:36:57.090Z,2.20
2019-02-12T05:39:23.710Z,2.20
2019-02-12T05:41:50.391Z,2.47
2019-02-12T05:44:16.997Z,2.23
2019-02-12T05:46:43.664Z,1.97
2019-02-12T05:49:09.939Z,2.20
2019-02-12T05:51:36.562Z,2.23
2019-02-12T05:54:03.202Z,2.03
2019-02-12T05:56:29.821Z,2.63
2019-02-12T05:58:56.116Z,2.03
2019-02-12T06:01:22.747Z,2.50
2019-02-12T06:03:49.394Z,2.00
2019-02-12T06:06:17.169Z,2.10
2019-02-12T06:08:43.922Z,2.00
2019-02-12T06:11:10.545Z,2.10
2019-02-12T06:13:37.213Z,1.90
2019-02-12T06:16:03.865Z,2.10
2019-02-12T06:18:30.545Z,1.83
2019-02-12T06:20:57.202Z,1.90
2019-02-12T06:23:23.814Z,1.97
2019-02-12T06:25:50.257Z,2.37
2019-02-12T06:28:16.881Z,1.83
2019-02-12T06:30:44.017Z,1.90
2019-02-12T06:33:10.314Z,2.10
2019-02-12T06:35:36.956Z,1.60
2019-02-12T06:38:03.596Z,1.80
2019-02-12T06:40:30.201Z,2.20
2019-02-12T06:42:56.878Z,2.20
2019-02-12T06:45:23.492Z,1.73
2019-02-12T06:47:50.169Z,1.50
2019-02-12T06:50:16.795Z,1.73
2019-02-12T06:52:43.422Z,2.00
2019-02-12T06:55:10.236Z,1.90
2019-02-12T06:57:36.988Z,1.60
2019-02-12T07:00:06.660Z,2.00
2019-02-12T07:03:10.310Z,1.50
2019-02-12T07:05:37.959Z,2.07
2019-02-12T07:08:06.526Z,1.70
2019-02-12T07:10:33.263Z,1.60
2019-02-12T07:13:03.297Z,1.77
2019-02-12T07:15:30.025Z,2.23
2019-02-12T07:18:19.856Z,2.10
2019-02-12T07:20:49.905Z,1.73
2019-02-12T07:23:21.675Z,2.60
2019-02-12T07:25:55.092Z,1.87
2019-02-12T07:28:36.857Z,2.10
2019-02-12T07:31:23.330Z,1.67
2019-02-12T07:34:05.497Z,2.27
2019-02-12T07:36:34.038Z,1.90
2019-02-12T07:39:18.982Z,2.07
2019-02-12T07:41:50.280Z,1.90
2019-02-12T07:44:24.735Z,2.00
2019-02-12T07:47:21.678Z,1.80
2019-02-12T07:49:59.056Z,2.27
2019-02-12T07:52:33.454Z,1.97
2019-02-12T07:55:12.286Z,2.40
2019-02-12T07:57:49.609Z,2.30
2019-02-12T08:00:18.121Z,2.20
2019-02-12T08:02:57.253Z,2.20
2019-02-12T08:05:47.165Z,2.07
2019-02-12T08:08:29.557Z,1.97
2019-02-12T08:11:10.003Z,2.03
2019-02-12T08:13:41.318Z,1.97
2019-02-12T08:16:12.605Z,2.40
2019-02-12T08:18:41.165Z,1.50
2019-02-12T08:21:09.682Z,2.03
2019-02-12T08:23:53.398Z,2.20
2019-02-12T08:26:32.210Z,3.50
2019-02-12T08:29:25.028Z,2.17
2019-02-12T08:31:53.545Z,2.13
2019-02-12T08:34:27.897Z,1.70
2019-02-12T08:36:56.453Z,2.00
2019-02-12T08:39:41.322Z,1.73
2019-02-12T08:42:09.866Z,1.93
2019-02-12T08:44:41.705Z,2.17
2019-02-12T08:47:14.842Z,1.60
2019-02-12T08:49:53.721Z,1.70
2019-02-12T08:52:28.271Z,1.90
2019-02-12T08:55:13.205Z,2.50
2019-02-12T08:57:58.090Z,1.77
2019-02-12T09:00:30.726Z,1.70
2019-02-12T09:03:14.174Z,1.53
2019-02-12T09:05:47.010Z,1.23
2019-02-12T09:08:15.519Z,1.77
2019-02-12T09:10:44.065Z,1.53
2019-02-12T09:13:12.569Z,2.07
2019-02-12T09:15:53.249Z,1.80
2019-02-12T09:18:40.874Z,1.70
2019-02-12T09:21:09.433Z,1.60
2019-02-12T09:24:00.443Z,1.60
2019-02-12T09:26:34.130Z,2.33
2019-02-12T09:29:18.629Z,1.30
2019-02-12T09:31:57.543Z,1.17
2019-02-12T09:34:44.105Z,1.50
2019-02-12T09:37:23.018Z,1.60
2019-02-12T09:39:55.846Z,1.50
2019-02-12T09:42:33.182Z,1.83
2019-02-12T09:45:15.495Z,1.50
2019-02-12T09:47:44.049Z,1.30
2019-02-12T09:50:19.819Z,1.53
2019-02-12T09:53:09.497Z,1.57
2019-02-12T09:55:38.033Z,1.40
2019-02-12T09:58:28.901Z,1.40
2019-02-12T10:01:01.587Z,1.60
2019-02-12T10:03:38.937Z,1.40
2019-02-12T10:06:07.505Z,2.00
2019-02-12T10:08:36.098Z,1.40
2019-02-12T10:11:07.652Z,1.40
2019-02-12T10:13:36.154Z,1.23
2019-02-12T10:16:06.222Z,1.30
2019-02-12T10:18:58.986Z,1.40
2019-02-12T10:21:30.284Z,1.60
2019-02-12T10:26:05.085Z,1.20
2019-02-12T10:26:59.322Z,1.07
2019-02-12T10:29:27.848Z,0.93
2019-02-12T10:31:54.408Z,1.00
2019-02-12T10:34:21.049Z,0.90
2019-02-12T10:36:47.738Z,1.30
2019-02-12T10:39:14.802Z,1.37
2019-02-12T10:41:41.563Z,1.00
2019-02-12T10:44:08.183Z,1.20
2019-02-12T10:46:34.898Z,1.10
2019-02-12T10:49:01.526Z,1.30
2019-02-12T10:51:28.166Z,0.97
2019-02-12T10:53:54.790Z,0.90
2019-02-12T10:56:21.461Z,1.33
2019-02-12T10:58:47.775Z,1.00
2019-02-12T11:01:14.383Z,1.13
2019-02-12T11:03:40.648Z,1.07
2019-02-12T11:06:08.882Z,1.00
2019-02-12T11:08:35.518Z,0.87
2019-02-12T11:11:02.972Z,0.97
2019-02-12T11:13:29.614Z,0.70
2019-02-12T11:15:55.924Z,1.47
2019-02-12T11:18:22.550Z,1.30
2019-02-12T11:20:49.067Z,12.63
2019-02-12T11:23:15.829Z,13.23
2019-02-12T11:25:42.464Z,14.07
2019-02-12T11:28:10.065Z,8.60
2019-02-12T11:30:36.697Z,5.27
2019-02-12T11:33:03.613Z,4.80
2019-02-12T11:35:30.273Z,3.93
2019-02-12T11:37:57.918Z,5.43
2019-02-12T11:40:24.570Z,3.70
2019-02-12T11:42:51.218Z,3.17
2019-02-12T11:45:17.866Z,2.67
2019-02-12T11:47:44.186Z,1.83
2019-02-12T11:50:11.006Z,1.80
2019-02-12T11:52:37.795Z,1.30
2019-02-12T11:55:07.176Z,1.00
2019-02-12T11:57:33.439Z,1.00
2019-02-12T12:00:00.340Z,1.37
2019-02-12T12:02:28.692Z,1.60
2019-02-12T12:04:55.566Z,0.93
2019-02-12T12:07:22.224Z,0.93
2019-02-12T12:09:48.906Z,1.13
2019-02-12T12:12:15.551Z,1.13
2019-02-12T12:14:42.443Z,1.00
2019-02-12T12:17:08.695Z,1.03
2019-02-12T12:19:34.978Z,1.23
2019-02-12T12:22:01.419Z,1.00
2019-02-12T12:24:28.090Z,0.90
2019-02-12T12:26:54.755Z,1.00
2019-02-12T12:29:22.150Z,0.80
2019-02-12T12:31:48.424Z,1.40
2019-02-12T12:34:15.054Z,1.00
2019-02-12T12:36:41.338Z,1.10
2019-02-12T12:39:08.015Z,1.20
2019-02-12T12:41:34.902Z,0.97
2019-02-12T12:44:01.178Z,1.47
2019-02-12T12:46:27.431Z,1.40
2019-02-12T12:48:54.049Z,1.50
2019-02-12T12:51:20.713Z,1.10
2019-02-12T12:53:47.363Z,1.53
2019-02-12T12:56:13.664Z,0.93
2019-02-12T12:58:39.924Z,1.33
2019-02-12T13:01:06.316Z,1.50
2019-02-12T13:03:32.577Z,1.30
2019-02-12T13:05:59.230Z,1.00
2019-02-12T13:08:25.853Z,1.00
2019-02-12T13:10:52.169Z,1.20
2019-02-12T13:13:18.793Z,1.20
2019-02-12T13:15:45.056Z,1.27
2019-02-12T13:18:11.301Z,1.17
2019-02-12T13:20:37.853Z,1.20
2019-02-12T13:23:04.507Z,1.47
2019-02-12T13:25:31.129Z,1.13
2019-02-12T13:27:58.201Z,1.17
2019-02-12T13:30:24.832Z,1.20
2019-02-12T13:32:51.587Z,1.10
2019-02-12T13:35:17.873Z,1.00
2019-02-12T13:37:44.485Z,1.00
2019-02-12T13:40:11.644Z,0.90
2019-02-12T13:42:38.286Z,1.27
2019-02-12T13:45:06.443Z,1.17
2019-02-12T13:47:33.084Z,1.10
2019-02-12T13:49:59.403Z,1.23
2019-02-12T13:52:25.674Z,1.10
2019-02-12T13:54:52.535Z,1.07
2019-02-12T13:57:19.186Z,0.83
2019-02-12T13:59:45.833Z,1.00
2019-02-12T14:02:12.104Z,0.90
2019-02-12T14:04:38.719Z,1.00
2019-02-12T14:07:04.982Z,1.57
2019-02-12T14:09:33.927Z,1.20
2019-02-12T14:12:00.227Z,1.03
2019-02-12T14:14:26.493Z,1.00
2019-02-12T14:16:53.164Z,0.97
2019-02-12T14:19:19.629Z,1.03
2019-02-12T14:21:46.293Z,1.27
2019-02-12T14:24:12.554Z,0.93
2019-02-12T14:26:39.222Z,0.80
2019-02-12T14:29:05.500Z,1.20
2019-02-12T14:31:31.797Z,0.67
2019-02-12T14:33:58.419Z,1.20
2019-02-12T14:36:25.077Z,1.00
2019-02-12T14:38:51.398Z,1.10
2019-02-12T14:41:18.007Z,1.07
2019-02-12T14:43:44.314Z,0.77
2019-02-12T14:46:11.906Z,0.90
2019-02-12T14:48:38.549Z,0.87
2019-02-12T14:51:05.189Z,1.20
2019-02-12T14:53:31.838Z,1.00
2019-02-12T14:55:58.101Z,1.27
2019-02-12T14:58:24.754Z,0.73
2019-02-12T15:00:51.371Z,0.90
2019-02-12T15:03:18.049Z,1.10
2019-02-12T15:05:44.320Z,0.80
2019-02-12T15:08:10.946Z,0.70
2019-02-12T15:10:37.585Z,0.87
2019-02-12T15:13:03.847Z,1.43
2019-02-12T15:15:30.150Z,1.10
2019-02-12T15:17:56.777Z,1.10
2019-02-12T15:20:23.515Z,1.33
2019-02-12T15:22:50.149Z,0.77
2019-02-12T15:25:16.691Z,1.20
2019-02-12T15:27:43.532Z,1.23
2019-02-12T15:30:13.815Z,0.90
2019-02-12T15:32:40.080Z,1.00
2019-02-12T15:35:07.413Z,0.93
2019-02-12T15:37:34.050Z,0.87
2019-02-12T15:40:00.673Z,0.77
2019-02-12T15:42:26.961Z,0.70
2019-02-12T15:44:53.217Z,0.80
2019-02-12T15:47:19.883Z,1.00
2019-02-12T15:49:46.558Z,0.80
2019-02-12T15:52:12.805Z,0.90
2019-02-12T15:54:39.061Z,0.83
2019-02-12T15:57:05.373Z,0.60
2019-02-12T15:59:33.467Z,0.80
2019-02-12T16:02:01.306Z,1.00
2019-02-12T16:04:28.226Z,0.80
2019-02-12T16:06:54.857Z,0.80
2019-02-12T16:09:22.427Z,0.60
2019-02-12T16:11:49.063Z,0.80
2019-02-12T16:14:16.502Z,0.50
2019-02-12T16:16:43.387Z,0.87
2019-02-12T16:19:10.136Z,0.80
2019-02-12T16:21:36.759Z,0.80
2019-02-12T16:24:03.402Z,0.60
2019-02-12T16:26:29.678Z,0.83
2019-02-12T16:28:56.339Z,1.70
2019-02-12T16:31:22.953Z,1.90
2019-02-12T16:33:49.580Z,1.23
2019-02-12T16:36:15.856Z,1.33
2019-02-12T16:38:42.489Z,1.00
2019-02-12T16:41:09.117Z,0.90
2019-02-12T16:43:35.739Z,1.10
2019-02-12T16:46:04.299Z,1.00
2019-02-12T16:48:30.901Z,0.93
2019-02-12T16:50:57.850Z,1.07
2019-02-12T16:53:24.170Z,1.20
2019-02-12T16:55:50.510Z,1.20
2019-02-12T16:58:17.195Z,1.50
2019-02-12T17:00:44.167Z,0.83
2019-02-12T17:03:11.015Z,0.73
2019-02-12T17:05:37.637Z,0.97
2019-02-12T17:08:03.922Z,0.87
2019-02-12T17:10:30.570Z,0.80
2019-02-12T17:12:57.210Z,1.20
2019-02-12T17:15:23.473Z,1.33
2019-02-12T17:17:49.757Z,1.40
2019-02-12T17:20:17.103Z,1.60
2019-02-12T17:22:43.762Z,1.50
2019-02-12T17:25:10.154Z,1.30
2019-02-12T17:27:36.767Z,1.80
2019-02-12T17:30:08.061Z,1.47
2019-02-12T17:32:34.739Z,1.83
2019-02-12T17:35:01.930Z,1.63
2019-02-12T17:37:28.543Z,1.27
2019-02-12T17:39:54.831Z,1.40
2019-02-12T17:42:21.458Z,1.10
2019-02-12T17:44:48.124Z,1.27
2019-02-12T17:47:14.755Z,1.43
2019-02-12T17:49:41.281Z,1.23
2019-02-12T17:52:07.582Z,0.87
2019-02-12T17:54:34.218Z,1.43
2019-02-12T17:57:00.510Z,1.53
2019-02-12T17:59:27.150Z,2.53
2019-02-12T18:01:53.797Z,2.60
2019-02-12T18:04:20.426Z,2.40
2019-02-12T18:06:47.201Z,2.33
2019-02-12T18:09:13.824Z,2.00
2019-02-12T18:11:40.290Z,1.80
2019-02-12T18:14:07.233Z,2.10
2019-02-12T18:16:34.142Z,1.30
2019-02-12T18:19:02.673Z,1.37
2019-02-12T18:21:29.985Z,1.30
2019-02-12T18:23:56.754Z,1.13
2019-02-12T18:26:24.187Z,1.10
2019-02-12T18:28:50.749Z,1.23
2019-02-12T18:31:17.050Z,1.40
2019-02-12T18:33:43.692Z,1.20
2019-02-12T18:36:10.367Z,1.20
2019-02-12T18:38:36.638Z,1.07
2019-02-12T18:41:03.071Z,1.20
2019-02-12T18:43:31.106Z,1.40
2019-02-12T18:45:58.578Z,1.50
2019-02-12T18:48:25.221Z,1.33
2019-02-12T18:50:51.873Z,1.37
2019-02-12T18:53:18.253Z,1.40
2019-02-12T18:55:44.925Z,1.70
2019-02-12T18:58:11.582Z,1.67
2019-02-12T19:00:37.965Z,2.00
2019-02-12T19:03:04.320Z,1.80
2019-02-12T19:05:30.942Z,1.70
2019-02-12T19:07:57.209Z,2.20
2019-02-12T19:10:23.478Z,2.20
2019-02-12T19:12:50.133Z,2.63
2019-02-12T19:15:19.225Z,2.00
2019-02-12T19:17:52.105Z,2.20
2019-02-12T19:20:19.913Z,1.80
2019-02-12T19:22:46.565Z,2.33
2019-02-12T19:25:13.204Z,2.73
2019-02-12T19:27:41.457Z,2.50
2019-02-12T19:30:16.230Z,1.70
2019-02-12T19:32:43.018Z,2.03
2019-02-12T19:35:09.937Z,2.10
2019-02-12T19:37:36.229Z,1.93
2019-02-12T19:40:04.407Z,2.23
2019-02-12T19:42:31.033Z,2.27
2019-02-12T19:44:57.325Z,2.37
2019-02-12T19:47:23.616Z,2.27
2019-02-12T19:49:50.352Z,1.67
2019-02-12T19:52:17.021Z,2.10
2019-02-12T19:54:43.656Z,2.03
2019-02-12T19:57:10.643Z,2.00
2019-02-12T19:59:37.226Z,2.53
2019-02-12T20:02:06.211Z,3.10
2019-02-12T20:04:32.831Z,6.30
2019-02-12T20:06:59.118Z,6.47
2019-02-12T20:09:25.388Z,5.70
2019-02-12T20:11:52.037Z,4.97
2019-02-12T20:14:18.289Z,3.90
2019-02-12T20:16:44.591Z,3.53
2019-02-12T20:19:11.213Z,3.23
2019-02-12T20:21:37.523Z,3.10
2019-02-12T20:24:04.133Z,2.77
2019-02-12T20:26:30.769Z,3.40
2019-02-12T20:28:57.394Z,3.20
2019-02-12T20:31:23.637Z,2.40
2019-02-12T20:33:56.902Z,2.90
2019-02-12T20:36:18.354Z,3.20
2019-02-12T20:38:45.274Z,2.60
2019-02-12T20:41:11.911Z,2.30
2019-02-12T20:43:38.562Z,2.17
2019-02-12T20:46:04.858Z,2.20
2019-02-12T20:48:31.430Z,1.50
2019-02-12T20:50:58.119Z,1.60
2019-02-12T20:53:24.447Z,1.43
2019-02-12T20:55:51.062Z,1.93
2019-02-12T20:58:17.969Z,1.30
2019-02-12T21:00:44.231Z,1.27
2019-02-12T21:03:11.176Z,3.23
2019-02-12T21:05:37.524Z,2.87
2019-02-12T21:08:04.138Z,1.97
2019-02-12T21:10:30.450Z,2.27
2019-02-12T21:12:56.710Z,1.85
2019-02-12T21:15:25.676Z,1.67
2019-02-12T21:17:52.399Z,2.00
2019-02-12T21:20:19.016Z,3.10
2019-02-12T21:22:45.305Z,3.43
2019-02-12T21:25:12.145Z,3.03
2019-02-12T21:27:38.793Z,2.73
2019-02-12T21:30:17.497Z,2.40
2019-02-12T21:32:44.103Z,2.23
2019-02-12T21:35:11.521Z,1.90
2019-02-12T21:37:38.166Z,2.77
2019-02-12T21:40:06.702Z,2.17
2019-02-12T21:42:32.965Z,2.50
2019-02-12T21:44:59.598Z,2.50
2019-02-12T21:47:25.880Z,1.73
2019-02-12T21:49:52.558Z,2.17
2019-02-12T21:52:18.846Z,2.70
2019-02-12T21:54:45.455Z,2.13
2019-02-12T21:57:12.125Z,2.57
2019-02-12T21:59:38.758Z,2.60
2019-02-12T22:02:05.327Z,2.50
2019-02-12T22:04:31.613Z,2.60
2019-02-12T22:06:58.277Z,2.33
2019-02-12T22:09:24.530Z,2.43
2019-02-12T22:11:50.825Z,3.17
2019-02-12T22:14:19.010Z,3.23
2019-02-12T22:16:45.664Z,2.83
2019-02-12T22:19:11.975Z,3.17
2019-02-12T22:21:38.614Z,2.57
2019-02-12T22:24:05.235Z,2.60
2019-02-12T22:26:31.877Z,2.47
2019-02-12T22:28:58.521Z,2.30
2019-02-12T22:31:24.785Z,2.20
2019-02-12T22:33:51.437Z,2.30
2019-02-12T22:36:18.064Z,2.33
2019-02-12T22:38:44.397Z,2.73
2019-02-12T22:41:11.030Z,2.70
2019-02-12T22:43:37.674Z,2.40
2019-02-12T22:46:04.546Z,2.83
2019-02-12T22:48:30.818Z,3.30
2019-02-12T22:50:57.481Z,2.37
2019-02-12T22:53:23.746Z,2.70
2019-02-12T22:55:50.042Z,3.00
2019-02-12T22:58:16.314Z,3.43
2019-02-12T23:00:49.513Z,3.20
2019-02-12T23:03:16.441Z,3.00
2019-02-12T23:05:43.092Z,3.07
2019-02-12T23:08:10.709Z,2.40
2019-02-12T23:10:37.385Z,3.23
2019-02-12T23:13:03.645Z,3.13
2019-02-12T23:15:30.268Z,2.80
2019-02-12T23:17:56.877Z,2.60
2019-02-12T23:20:24.324Z,2.73
2019-02-12T23:22:50.974Z,2.60
2019-02-12T23:25:17.585Z,2.70
2019-02-12T23:27:44.231Z,2.53
2019-02-12T23:30:10.950Z,2.30
2019-02-12T23:32:37.597Z,2.53
2019-02-12T23:35:04.765Z,2.60
2019-02-12T23:37:31.406Z,2.80
2019-02-12T23:39:58.023Z,2.00
2019-02-12T23:42:24.314Z,2.17
2019-02-12T23:44:50.965Z,2.40
2019-02-12T23:47:17.230Z,2.10
2019-02-12T23:49:43.919Z,2.30
2019-02-12T23:52:10.288Z,2.80
2019-02-12T23:54:36.574Z,2.47
2019-02-12T23:57:03.197Z,2.80
2019-02-12T23:59:29.489Z,2.43
